createdAt,value
2022-11-18T00:01:16.577Z,-1.30
2022-11-18T00:03:44.813Z,-1.30
2022-11-18T00:06:14.805Z,-1.30
2022-11-18T00:08:42.478Z,-1.30
2022-11-18T00:11:12.236Z,-1.40
2022-11-18T00:13:58.415Z,-1.30
2022-11-18T00:16:26.222Z,-1.30
2022-11-18T00:18:53.770Z,-1.40
2022-11-18T00:21:21.337Z,-1.30
2022-11-18T00:23:49.873Z,-1.30
2022-11-18T00:26:17.493Z,-1.40
2022-11-18T00:31:14.168Z,-1.40
2022-11-18T00:33:42.188Z,-1.40
2022-11-18T00:36:12.300Z,-1.90
2022-11-18T00:38:40.996Z,-1.40
2022-11-18T00:41:13.451Z,-1.40
2022-11-18T00:43:41.960Z,-1.40
2022-11-18T00:46:11.330Z,-1.40
2022-11-18T00:48:39.715Z,-2.30
2022-11-18T00:51:15.098Z,-1.40
2022-11-18T01:01:06.560Z,-1.40
2022-11-18T01:06:01.913Z,-1.40
2022-11-18T01:08:29.808Z,-1.40
2022-11-18T01:18:40.443Z,-1.40
2022-11-18T01:21:08.221Z,-1.30
2022-11-18T01:26:06.766Z,-1.40
2022-11-18T01:28:34.701Z,-1.40
2022-11-18T01:33:40.658Z,-1.40
2022-11-18T01:36:22.724Z,-1.40
2022-11-18T01:38:50.945Z,-1.40
2022-11-18T01:43:55.391Z,-1.40
2022-11-18T01:46:23.247Z,-1.40
2022-11-18T01:48:59.303Z,-1.50
2022-11-18T01:51:32.724Z,-1.40
2022-11-18T01:54:27.935Z,-1.50
2022-11-18T01:57:01.260Z,-1.40
2022-11-18T01:59:32.290Z,-1.50
2022-11-18T02:02:01.759Z,-1.50
2022-11-18T02:04:29.626Z,-1.50
2022-11-18T02:06:57.669Z,-1.50
2022-11-18T02:09:25.448Z,-1.50
2022-11-18T02:11:56.607Z,-1.50
2022-11-18T02:14:34.423Z,-1.50
2022-11-18T02:17:27.343Z,-1.40
2022-11-18T02:22:59.426Z,-1.00
2022-11-18T02:26:02.144Z,-1.70
2022-11-18T02:28:38.200Z,-1.50
2022-11-18T02:34:21.606Z,-1.50
2022-11-18T02:37:18.181Z,-1.50
2022-11-18T02:40:11.898Z,-1.60
2022-11-18T02:42:42.387Z,-1.80
2022-11-18T02:45:14.464Z,-1.30
2022-11-18T02:50:15.025Z,-1.60
2022-11-18T02:52:45.505Z,-1.90
2022-11-18T02:55:18.077Z,-1.60
2022-11-18T02:57:46.541Z,-1.60
2022-11-18T03:00:14.528Z,-1.70
2022-11-18T03:05:19.460Z,-1.60
2022-11-18T03:07:51.969Z,-1.60
2022-11-18T03:10:22.099Z,-1.60
2022-11-18T03:12:58.679Z,-1.60
2022-11-18T03:15:54.673Z,-1.60
2022-11-18T03:18:27.875Z,-1.60
2022-11-18T03:21:19.457Z,-1.70
2022-11-18T03:24:05.563Z,-1.60
2022-11-18T03:26:40.716Z,-1.60
2022-11-18T03:29:35.142Z,-1.70
2022-11-18T03:32:15.568Z,-1.60
2022-11-18T03:34:47.151Z,-1.60
2022-11-18T03:37:18.673Z,-1.60
2022-11-18T03:40:00.171Z,-1.60
2022-11-18T03:42:41.126Z,-1.60
2022-11-18T03:47:45.786Z,-1.60
2022-11-18T03:50:22.086Z,-1.50
2022-11-18T03:52:51.224Z,-1.50
2022-11-18T03:55:23.635Z,-1.50
2022-11-18T03:58:24.087Z,-1.50
2022-11-18T04:00:56.810Z,-1.50
2022-11-18T04:06:01.266Z,-1.50
2022-11-18T04:08:36.490Z,-1.60
2022-11-18T04:11:42.363Z,-1.60
2022-11-18T04:14:11.348Z,-1.60
2022-11-18T04:16:43.104Z,-1.60
2022-11-18T04:19:10.414Z,-1.70
2022-11-18T04:21:38.113Z,-1.60
2022-11-18T04:24:06.582Z,-1.60
2022-11-18T04:29:01.403Z,-1.90
2022-11-18T04:31:30.782Z,-1.60
2022-11-18T04:33:58.376Z,-1.60
2022-11-18T04:38:53.831Z,-1.10
2022-11-18T04:41:41.500Z,-2.10
2022-11-18T04:44:13.164Z,-1.70
2022-11-18T04:46:45.400Z,-1.70
2022-11-18T04:49:15.181Z,-1.70
2022-11-18T04:51:43.495Z,-1.80
2022-11-18T04:54:11.862Z,-1.70
2022-11-18T04:56:44.218Z,-1.70
2022-11-18T05:01:45.535Z,-2.60
2022-11-18T05:04:15.586Z,0.00
2022-11-18T05:06:43.569Z,-1.80
2022-11-18T05:09:11.471Z,-1.80
2022-11-18T05:11:57.782Z,-1.90
2022-11-18T05:14:29.257Z,-1.90
2022-11-18T05:16:58.518Z,-1.80
2022-11-18T05:24:25.453Z,-1.90
2022-11-18T05:26:53.824Z,-2.00
2022-11-18T05:31:50.017Z,-1.90
2022-11-18T05:34:18.468Z,-2.00
2022-11-18T05:39:14.047Z,-2.00
2022-11-18T05:54:20.283Z,-2.00
2022-11-18T05:56:48.149Z,-2.10
2022-11-18T06:02:07.957Z,-2.10
2022-11-18T06:05:00.888Z,-2.00
2022-11-18T06:07:38.515Z,-2.20
2022-11-18T06:10:06.699Z,-2.00
2022-11-18T06:12:41.905Z,-2.10
2022-11-18T06:15:20.796Z,-2.10
2022-11-18T06:18:09.207Z,-2.20
2022-11-18T06:20:39.567Z,-2.00
2022-11-18T06:23:07.104Z,-2.00
2022-11-18T06:25:37.728Z,-2.00
2022-11-18T06:28:05.642Z,-2.00
2022-11-18T06:30:33.152Z,-2.00
2022-11-18T06:33:00.722Z,-1.90
2022-11-18T06:35:28.403Z,-2.10
2022-11-18T06:40:23.446Z,-2.10
2022-11-18T06:45:37.454Z,-2.10
2022-11-18T06:48:05.155Z,-2.10
2022-11-18T06:53:01.564Z,-2.10
2022-11-18T06:55:29.208Z,-2.00
2022-11-18T06:57:57.484Z,-2.10
2022-11-18T07:00:25.303Z,-2.10
2022-11-18T07:02:53.018Z,-2.90
2022-11-18T07:07:48.389Z,-2.10
2022-11-18T07:12:43.792Z,-2.10
2022-11-18T07:15:11.667Z,-2.10
2022-11-18T07:17:41.580Z,-2.10
2022-11-18T07:20:10.200Z,-2.10
2022-11-18T07:22:38.120Z,-2.20
2022-11-18T07:25:06.411Z,-2.20
2022-11-18T07:27:34.235Z,-2.30
2022-11-18T07:32:29.752Z,-2.50
2022-11-18T07:34:57.465Z,-2.60
2022-11-18T07:37:25.142Z,-2.70
2022-11-18T07:39:52.767Z,-2.80
2022-11-18T07:42:20.393Z,-2.60
2022-11-18T07:44:47.954Z,-2.90
2022-11-18T07:47:15.693Z,-2.90
2022-11-18T07:49:43.182Z,-2.90
2022-11-18T07:54:38.184Z,-2.80
2022-11-18T07:57:06.228Z,-2.80
2022-11-18T08:04:29.456Z,-2.70
2022-11-18T08:06:57.251Z,-2.70
2022-11-18T08:09:24.928Z,-2.70
2022-11-18T08:11:52.749Z,-2.70
2022-11-18T08:24:14.721Z,-3.10
2022-11-18T08:26:42.431Z,-2.70
2022-11-18T08:29:09.854Z,-2.70
2022-11-18T08:34:07.683Z,-2.50
2022-11-18T08:36:38.023Z,-2.50
2022-11-18T08:39:06.649Z,-2.40
2022-11-18T08:41:36.658Z,-2.20
2022-11-18T08:49:00.418Z,-1.40
2022-11-18T08:53:56.394Z,0.40
2022-11-18T08:56:25.273Z,0.80
2022-11-18T08:58:55.530Z,1.00
2022-11-18T09:01:23.365Z,0.20
2022-11-18T09:03:51.276Z,-0.10
2022-11-18T09:06:20.673Z,-0.80
2022-11-18T09:08:48.337Z,-1.00
2022-11-18T09:11:18.086Z,-1.20
2022-11-18T09:16:35.223Z,-1.60
2022-11-18T09:19:24.477Z,-1.50
2022-11-18T09:24:20.607Z,-1.60
2022-11-18T09:29:17.970Z,-1.80
2022-11-18T09:39:09.053Z,0.20
2022-11-18T09:41:45.319Z,-0.40
2022-11-18T09:44:38.921Z,-0.40
2022-11-18T09:47:29.422Z,-1.00
2022-11-18T09:50:26.706Z,-1.20
2022-11-18T09:53:07.661Z,-1.50
2022-11-18T09:55:38.570Z,-1.50
2022-11-18T09:58:07.399Z,-1.70
2022-11-18T10:00:35.243Z,-1.80
2022-11-18T10:03:08.302Z,-2.00
2022-11-18T10:05:57.203Z,-2.00
2022-11-18T10:08:29.158Z,-1.90
2022-11-18T10:11:11.651Z,-1.80
2022-11-18T10:13:44.749Z,-1.00
2022-11-18T10:16:44.684Z,0.10
2022-11-18T10:19:39.626Z,2.80
2022-11-18T10:22:22.839Z,3.20
2022-11-18T10:24:55.953Z,3.20
2022-11-18T10:29:57.541Z,2.60
2022-11-18T10:38:07.340Z,0.50
2022-11-18T10:40:27.913Z,-0.10
2022-11-18T10:45:27.973Z,-0.50
2022-11-18T10:48:10.561Z,-1.10
2022-11-18T10:50:54.709Z,-1.10
2022-11-18T10:53:37.411Z,-1.40
2022-11-18T10:56:07.200Z,-1.40
2022-11-18T10:58:43.437Z,-1.80
2022-11-18T11:01:19.710Z,-1.90
2022-11-18T11:03:59.375Z,-2.00
2022-11-18T11:09:27.955Z,-2.20
2022-11-18T11:12:00.463Z,-2.30
2022-11-18T11:17:19.964Z,-2.30
2022-11-18T11:20:22.052Z,-2.30
2022-11-18T11:22:50.356Z,-2.30
2022-11-18T11:29:00.708Z,-2.40
2022-11-18T11:31:54.931Z,-2.40
2022-11-18T11:34:43.886Z,-2.40
2022-11-18T11:40:12.230Z,-2.40
2022-11-18T11:43:10.008Z,-2.40
2022-11-18T11:46:05.492Z,-2.40
2022-11-18T11:49:02.365Z,-2.50
2022-11-18T11:51:48.415Z,-2.50
2022-11-18T11:57:04.254Z,-2.50
2022-11-18T12:00:05.466Z,-2.50
2022-11-18T12:02:47.857Z,-3.00
2022-11-18T12:05:52.534Z,-2.50
2022-11-18T12:08:32.052Z,-2.50
2022-11-18T12:11:31.622Z,-1.70
2022-11-18T12:14:39.580Z,-2.50
2022-11-18T12:17:22.263Z,-2.40
2022-11-18T12:22:17.742Z,-2.40
2022-11-18T12:24:45.699Z,-2.30
2022-11-18T12:27:30.993Z,-2.40
2022-11-18T12:30:01.779Z,-2.40
2022-11-18T12:32:43.226Z,-2.50
2022-11-18T12:35:13.610Z,-2.50
2022-11-18T12:37:52.558Z,-2.70
2022-11-18T12:40:38.085Z,-2.70
2022-11-18T12:43:29.916Z,-2.80
2022-11-18T12:45:58.645Z,-2.80
2022-11-18T12:48:34.979Z,-2.80
2022-11-18T12:51:24.819Z,-2.80
2022-11-18T12:59:03.040Z,-2.70
2022-11-18T13:01:35.231Z,-2.70
2022-11-18T13:04:10.467Z,-2.80
2022-11-18T13:06:39.556Z,-2.80
2022-11-18T13:09:16.413Z,-2.80
2022-11-18T13:11:51.324Z,-2.80
2022-11-18T13:14:46.363Z,-2.90
2022-11-18T13:17:58.744Z,-2.90
2022-11-18T13:20:33.621Z,-2.90
2022-11-18T13:23:22.512Z,-2.90
2022-11-18T13:25:50.655Z,-2.90
2022-11-18T13:28:45.436Z,-2.90
2022-11-18T13:31:50.556Z,-3.00
2022-11-18T13:34:26.676Z,-3.00
2022-11-18T13:36:58.523Z,-3.00
2022-11-18T13:39:28.242Z,-3.10
2022-11-18T13:42:25.964Z,-4.10
2022-11-18T13:44:57.636Z,-3.10
2022-11-18T13:50:11.509Z,-3.20
2022-11-18T13:52:44.133Z,-3.20
2022-11-18T13:58:01.456Z,-2.30
2022-11-18T14:00:30.867Z,-3.30
2022-11-18T14:03:25.620Z,-3.30
2022-11-18T14:05:57.522Z,-3.40
2022-11-18T14:08:31.876Z,-3.30
2022-11-18T14:11:00.461Z,-3.40
2022-11-18T14:13:35.754Z,-3.40
2022-11-18T14:18:35.365Z,-3.50
2022-11-18T14:21:04.790Z,-3.20
2022-11-18T14:23:37.293Z,-4.10
2022-11-18T14:26:07.097Z,-3.70
2022-11-18T14:28:37.265Z,-3.90
2022-11-18T14:31:07.559Z,-4.00
2022-11-18T14:33:37.089Z,-4.10
2022-11-18T14:36:04.465Z,-4.20
2022-11-18T14:38:47.772Z,-4.30
2022-11-18T14:41:45.541Z,-4.40
2022-11-18T14:44:16.102Z,-4.10
2022-11-18T14:46:46.388Z,-4.60
2022-11-18T14:49:15.152Z,-4.70
2022-11-18T14:51:42.752Z,-4.70
2022-11-18T14:54:20.749Z,-4.80
2022-11-18T15:01:49.826Z,-4.40
2022-11-18T15:09:14.326Z,-5.20
2022-11-18T15:11:42.001Z,-5.20
2022-11-18T15:16:38.980Z,-5.30
2022-11-18T15:19:09.912Z,-5.40
2022-11-18T15:24:06.272Z,-5.50
2022-11-18T15:26:40.266Z,-5.60
2022-11-18T15:29:11.642Z,-5.50
2022-11-18T15:31:39.484Z,-5.60
2022-11-18T15:34:07.173Z,-5.60
2022-11-18T15:39:02.468Z,-5.80
2022-11-18T15:41:31.442Z,-5.90
2022-11-18T15:44:00.670Z,-5.90
2022-11-18T15:46:30.260Z,-6.00
2022-11-18T15:48:58.966Z,-5.40
2022-11-18T15:56:30.585Z,-5.90
2022-11-18T16:08:57.568Z,-5.50
2022-11-18T16:14:14.152Z,-5.40
2022-11-18T16:16:42.913Z,-5.30
2022-11-18T16:21:41.890Z,-5.20
2022-11-18T16:24:12.941Z,-5.20
2022-11-18T16:26:40.683Z,-5.20
2022-11-18T16:29:10.009Z,-5.20
2022-11-18T16:31:40.022Z,-5.20
2022-11-18T16:36:44.254Z,-5.20
2022-11-18T16:41:41.357Z,-5.20
2022-11-18T16:44:11.157Z,-5.20
2022-11-18T16:46:40.072Z,-5.10
2022-11-18T16:51:36.436Z,-5.20
2022-11-18T16:54:05.999Z,-5.20
2022-11-18T16:56:36.066Z,-5.30
2022-11-18T16:59:11.513Z,-5.30
2022-11-18T17:04:07.087Z,-5.30
2022-11-18T17:06:35.053Z,-5.30
2022-11-18T17:09:02.916Z,-5.20
2022-11-18T17:11:30.490Z,-5.20
2022-11-18T17:18:56.433Z,-5.10
2022-11-18T17:21:25.124Z,-5.10
2022-11-18T17:26:24.115Z,-5.10
2022-11-18T17:28:51.832Z,-5.10
2022-11-18T17:31:21.290Z,-5.10
2022-11-18T17:36:19.592Z,-5.10
2022-11-18T17:41:36.150Z,-5.10
2022-11-18T17:44:05.380Z,-5.20
2022-11-18T17:46:37.776Z,-5.20
2022-11-18T17:49:07.929Z,-5.20
2022-11-18T17:51:35.695Z,-5.20
2022-11-18T17:54:03.122Z,-5.30
2022-11-18T17:56:31.385Z,-5.30
2022-11-18T17:58:58.931Z,-5.30
2022-11-18T18:01:26.547Z,-5.30
2022-11-18T18:03:55.998Z,-5.30
2022-11-18T18:06:23.935Z,-5.30
2022-11-18T18:08:56.132Z,-5.30
2022-11-18T18:11:23.990Z,-5.30
2022-11-18T18:16:37.823Z,-5.30
2022-11-18T18:19:06.581Z,-5.30
2022-11-18T18:21:35.656Z,-5.30
2022-11-18T18:24:03.998Z,-5.20
2022-11-18T18:26:32.335Z,-5.20
2022-11-18T18:29:00.963Z,-5.10
2022-11-18T18:31:29.153Z,-5.20
2022-11-18T18:36:25.389Z,-5.10
2022-11-18T18:41:23.149Z,-5.00
2022-11-18T18:43:51.395Z,-5.00
2022-11-18T18:46:31.440Z,-5.00
2022-11-18T18:49:09.172Z,-5.00
2022-11-18T18:51:40.639Z,-5.00
2022-11-18T18:54:10.769Z,-5.10
2022-11-18T18:59:10.281Z,-4.90
2022-11-18T19:01:39.578Z,-4.90
2022-11-18T19:04:07.949Z,-4.90
2022-11-18T19:09:25.092Z,-4.90
2022-11-18T19:20:00.353Z,-4.80
2022-11-18T19:22:31.707Z,-4.80
2022-11-18T19:25:00.049Z,-4.70
2022-11-18T19:27:28.448Z,-4.70
2022-11-18T19:32:23.732Z,-4.70
2022-11-18T19:37:19.116Z,-4.70
2022-11-18T19:42:14.479Z,-4.70
2022-11-18T19:47:10.026Z,-4.80
2022-11-18T19:49:37.939Z,-4.80
2022-11-18T19:52:05.615Z,-4.90
2022-11-18T19:57:01.122Z,-5.00
2022-11-18T19:59:28.815Z,-5.10
2022-11-18T20:01:56.398Z,-5.20
2022-11-18T20:09:19.771Z,-5.30
2022-11-18T20:19:13.808Z,-5.50
2022-11-18T20:21:45.398Z,-5.50
2022-11-18T20:39:13.553Z,-5.40
2022-11-18T21:01:30.772Z,-4.80
2022-11-18T21:04:00.524Z,-4.90
2022-11-18T21:06:30.072Z,-4.80
2022-11-18T21:09:02.729Z,-4.70
2022-11-18T21:11:30.658Z,-4.70
2022-11-18T21:14:22.986Z,-5.50
2022-11-18T21:16:55.741Z,-4.70
2022-11-18T21:19:27.032Z,-4.80
2022-11-18T21:26:58.134Z,-4.70
2022-11-18T21:29:31.495Z,-4.60
2022-11-18T21:32:02.638Z,-4.60
2022-11-18T21:34:30.461Z,-4.60
2022-11-18T21:36:58.313Z,-4.70
2022-11-18T21:39:27.457Z,-4.70
2022-11-18T21:41:57.504Z,-4.60
2022-11-18T21:49:24.346Z,-4.70
2022-11-18T21:51:52.161Z,-4.70
2022-11-18T21:54:19.667Z,-4.70
2022-11-18T21:59:15.222Z,-4.60
2022-11-18T22:04:30.745Z,-4.60
2022-11-18T22:06:58.317Z,-4.50
2022-11-18T22:11:57.767Z,-4.50
2022-11-18T22:14:25.739Z,-4.50
2022-11-18T22:16:53.406Z,-4.50
2022-11-18T22:19:24.879Z,-4.40
2022-11-18T22:24:21.098Z,-3.00
2022-11-18T22:26:48.750Z,-4.40
2022-11-18T22:34:14.548Z,-4.30
2022-11-18T22:36:42.319Z,-4.50
2022-11-18T22:39:09.823Z,-4.40
2022-11-18T22:44:23.735Z,-4.40
2022-11-18T22:46:53.100Z,-4.40
2022-11-18T22:49:21.050Z,-4.40
2022-11-18T22:57:04.822Z,-4.40
2022-11-18T22:59:32.383Z,-4.40
2022-11-18T23:02:01.775Z,-4.40
2022-11-18T23:04:29.553Z,-4.40
2022-11-18T23:06:57.252Z,-4.40
2022-11-18T23:12:10.689Z,-4.40
2022-11-18T23:14:38.542Z,-4.40
2022-11-18T23:17:06.526Z,-4.40
2022-11-18T23:19:34.375Z,-4.40
2022-11-18T23:24:31.605Z,-4.50
2022-11-18T23:29:27.110Z,-4.50
2022-11-18T23:31:54.918Z,-5.60
2022-11-18T23:34:22.874Z,-4.70
2022-11-18T23:36:51.108Z,-5.50
2022-11-18T23:44:14.834Z,-4.80
2022-11-18T23:46:42.278Z,-4.80
2022-11-18T23:49:10.320Z,-4.80
2022-11-18T23:54:05.722Z,-4.80
2022-11-18T23:56:37.825Z,-4.80
